Pagrindinis puslapis
METAR-TAF:

METAR-TAF

Oro uostai :

Juanjuí, Peru

platuma: 07-10-10S, ilguma: 076-43-45W, Aukštis: 350 m

Dabartinis oras

Ataskaita buvo paskelbta 3 valandos ir 20 minutes, ne 19:00 UTC
Ramus vėjas
Temperatūra 27°C
Drėgmė 74%
Slėgis 1020 hPa
Matomumas 10 km arba daugiau
Mažai debesys ne aukštis 2000 ft
Apsiniaukę ne aukštis 8000 ft

METAR: SPJI 281900Z 00000KT 9999 FEW020 OVC080 27/22 Q1020 RMK TX28.2 PP000

Laikas: 17:20 (22:20 UTC)

Prognozė

Ataskaita buvo paskelbta 5 valandos ir 20 minutes, ne 17:00 UTC
Prognozė galioja nuo 28 metu 18 UTC su 29 metu 18 UTC
Vėjas 5 kt iš Rytų/Šiaurės Rytų
Išsisklaidę debesys ne aukštis 2000 ft
Su prošvaistėmis ne aukštis 10000 ft
Laikinai
nuo 29 metu 11 UTC su 29 metu 15 UTC
Matomumas: 4000 m
Su prošvaistėmis ne aukštis 1000 ft
Su prošvaistėmis ne aukštis 8000 ft
lietus, dulksna

TAF: SPJI 281700Z 2818/2918 06005KT SCT020 BKN100 TX29/2820Z TN19/2911Z TEMPO 2911/2915 4000 RADZ BKN010 BKN080

Orai ataskaitas ir orų prognozės (METAR, TAF).

turimą stotys yra geltonos ir raudonos taškus žemėlapyje.

Perkelti pele per norėdami pamatyti stoties vardą.

Tada spustelėkite, norėdami matyti oro stebėjimo ir prognozės.

Norėdami pakeisti žemėlapį: spustelėkite ant žalios mygtukų su juodo kryžiaus žemyn,; žalią mygtuką su brūkšneliu, jei norite nutolinti; arba žalių rodyklių gretimoms žemėlapius.


METAR-TAF: